Time;durP1;ratioP1;P1;durP2;ratioP2;P2;SDS_P1;SDS_P2;PMS_P1;PMS_P2;Temp;Humidity;BMP_temperature;BMP_pressure;BME280_temperature;BME280_humidity;BME280_pressure;Samples;Min_cycle;Max_cycle;Signal;HPM_P1;HPM_P2
2022/12/05 00:00:04;;;;;;;163.07;14.80;;;;;;;;;;6272786;22;20069;-90
2022/12/05 00:02:29;;;;;;;187.57;17.52;;;;;;;;;;6298186;22;20010;-92
2022/12/05 00:04:54;;;;;;;196.32;16.40;;;;;;;;;;6300206;22;20499;-92
2022/12/05 00:07:20;;;;;;;314.63;21.33;;;;;;;;;;6273146;22;20011;-93
2022/12/05 00:09:45;;;;;;;270.73;19.90;;;;;;;;;;6300897;22;20038;-93
2022/12/05 00:12:10;;;;;;;268.95;20.88;;;;;;;;;;6300020;22;20507;-91
2022/12/05 00:14:36;;;;;;;227.52;19.15;;;;;;;;;;6300757;22;19995;-92
2022/12/05 00:17:01;;;;;;;137.30;15.57;;;;;;;;;;6300488;22;20007;-93
2022/12/05 00:19:26;;;;;;;43.45;9.52;;;;;;;;;;6273740;22;20007;-92
2022/12/05 00:21:51;;;;;;;101.50;11.88;;;;;;;;;;6300038;22;20010;-92
2022/12/05 00:24:18;;;;;;;41.10;8.95;;;;;;;;;;6301060;22;20451;-92
2022/12/05 00:26:43;;;;;;;64.32;8.80;;;;;;;;;;6298369;22;20007;-91
2022/12/05 00:29:10;;;;;;;181.10;16.50;;;;;;;;;;6300021;22;19996;-91
2022/12/05 00:31:35;;;;;;;197.05;16.65;;;;;;;;;;6297848;22;19995;-91
2022/12/05 00:34:01;;;;;;;111.63;12.88;;;;;;;;;;6298104;22;20060;-91
2022/12/05 00:36:28;;;;;;;65.40;11.23;;;;;;;;;;6296989;22;20015;-91
2022/12/05 00:38:54;;;;;;;55.33;10.10;;;;;;;;;;6297204;22;20007;-91
2022/12/05 00:41:20;;;;;;;81.63;10.32;;;;;;;;;;6298195;22;20011;-91
2022/12/05 00:43:46;;;;;;;60.50;9.30;;;;;;;;;;6269734;22;20007;-91
2022/12/05 00:46:13;;;;;;;21.92;7.40;;;;;;;;;;6299312;22;20068;-91
2022/12/05 00:48:38;;;;;;;24.80;8.27;;;;;;;;;;6295126;22;20019;-92
2022/12/05 00:51:05;;;;;;;43.17;8.45;;;;;;;;;;6295622;22;20006;-92
2022/12/05 00:53:30;;;;;;;25.88;7.60;;;;;;;;;;6294593;22;20007;-92
2022/12/05 00:55:56;;;;;;;42.97;8.20;;;;;;;;;;6270642;22;20703;-92
2022/12/05 00:58:21;;;;;;;26.25;6.97;;;;;;;;;;6298740;22;20012;-92
2022/12/05 01:00:48;;;;;;;26.70;7.38;;;;;;;;;;6298145;22;19999;-91
2022/12/05 01:03:13;;;;;;;32.88;7.63;;;;;;;;;;6294995;22;20042;-91
2022/12/05 01:05:38;;;;;;;19.40;7.50;;;;;;;;;;6299163;22;20432;-92
2022/12/05 01:08:04;;;;;;;20.15;6.60;;;;;;;;;;6299297;22;20033;-91
2022/12/05 01:10:29;;;;;;;23.02;7.00;;;;;;;;;;6300135;22;20308;-92
2022/12/05 01:12:54;;;;;;;28.02;8.20;;;;;;;;;;6298174;22;20053;-92
2022/12/05 01:15:19;;;;;;;20.92;6.65;;;;;;;;;;6273327;22;20420;-92
2022/12/05 01:17:45;;;;;;;19.88;6.68;;;;;;;;;;6299195;22;20011;-91
2022/12/05 01:20:10;;;;;;;19.13;5.95;;;;;;;;;;6297095;22;20034;-93
2022/12/05 01:22:35;;;;;;;14.88;5.38;;;;;;;;;;6299357;22;20042;-92
2022/12/05 01:25:01;;;;;;;23.45;6.00;;;;;;;;;;6297583;22;20007;-93
2022/12/05 01:27:27;;;;;;;17.02;6.50;;;;;;;;;;6300237;22;20014;-90
2022/12/05 01:29:54;;;;;;;17.77;6.32;;;;;;;;;;6298109;22;20031;-90
2022/12/05 01:32:19;;;;;;;15.57;5.78;;;;;;;;;;6299214;22;20007;-91
2022/12/05 01:34:44;;;;;;;20.77;6.47;;;;;;;;;;6297389;22;20030;-91
2022/12/05 01:37:10;;;;;;;14.73;5.72;;;;;;;;;;6299359;22;20061;-91
2022/12/05 01:39:35;;;;;;;19.23;6.03;;;;;;;;;;6270903;22;20007;-90
2022/12/05 01:42:00;;;;;;;15.50;5.82;;;;;;;;;;6297112;22;20463;-91
2022/12/05 01:44:25;;;;;;;18.42;6.07;;;;;;;;;;6296112;22;20015;-91
2022/12/05 01:46:51;;;;;;;17.37;5.90;;;;;;;;;;6297294;22;20048;-91
2022/12/05 01:49:20;;;;;;;15.43;5.65;;;;;;;;;;6299163;22;20244;-90
2022/12/05 01:51:50;;;;;;;19.00;5.57;;;;;;;;;;6297790;22;20007;-90
2022/12/05 01:54:17;;;;;;;15.05;5.63;;;;;;;;;;6297347;22;20387;-91
2022/12/05 01:56:44;;;;;;;16.98;5.95;;;;;;;;;;6297164;22;20027;-92
2022/12/05 01:59:10;;;;;;;20.75;5.82;;;;;;;;;;6296160;22;20007;-91
2022/12/05 02:01:36;;;;;;;19.70;5.20;;;;;;;;;;6297534;22;20003;-91
2022/12/05 02:04:01;;;;;;;15.13;4.80;;;;;;;;;;6299781;22;20019;-91
2022/12/05 02:06:27;;;;;;;18.58;6.57;;;;;;;;;;6299697;22;20007;-91
2022/12/05 02:08:52;;;;;;;17.50;5.43;;;;;;;;;;6300824;22;20014;-92
2022/12/05 02:11:18;;;;;;;15.68;4.78;;;;;;;;;;6298827;22;20007;-91
2022/12/05 02:14:02;;;;;;;19.30;4.88;;;;;;;;;;6298524;22;20017;-91
2022/12/05 02:16:40;;;;;;;17.00;4.88;;;;;;;;;;6273003;22;20010;-91
2022/12/05 02:19:08;;;;;;;19.05;4.43;;;;;;;;;;6297902;22;20123;-91
2022/12/05 02:21:42;;;;;;;14.75;4.47;;;;;;;;;;6273580;22;20007;-91
2022/12/05 02:24:11;;;;;;;17.15;4.47;;;;;;;;;;6300579;22;20011;-89
2022/12/05 02:26:36;;;;;;;15.48;4.65;;;;;;;;;;6273185;22;20429;-91
2022/12/05 02:29:13;;;;;;;14.27;4.85;;;;;;;;;;6300329;22;20010;-91
2022/12/05 02:31:58;;;;;;;15.82;4.20;;;;;;;;;;6298308;22;19995;-91
2022/12/05 02:34:30;;;;;;;14.50;4.47;;;;;;;;;;6270851;22;20003;-90
2022/12/05 02:36:58;;;;;;;17.77;5.25;;;;;;;;;;6295881;22;20084;-92
2022/12/05 02:39:33;;;;;;;13.07;4.65;;;;;;;;;;6295955;22;20008;-92
2022/12/05 02:42:02;;;;;;;15.95;4.93;;;;;;;;;;6295886;22;20037;-91
2022/12/05 02:44:36;;;;;;;16.70;4.65;;;;;;;;;;6297932;22;20006;-91
2022/12/05 02:47:03;;;;;;;14.52;4.60;;;;;;;;;;6296108;22;20031;-92
2022/12/05 02:49:34;;;;;;;22.25;5.07;;;;;;;;;;6269817;22;20081;-91
2022/12/05 02:52:01;;;;;;;15.60;4.45;;;;;;;;;;6296458;22;20022;-90
2022/12/05 02:54:28;;;;;;;14.75;4.53;;;;;;;;;;6295532;22;20015;-91
2022/12/05 02:56:56;;;;;;;13.23;4.28;;;;;;;;;;6268909;22;20003;-92
2022/12/05 02:59:21;;;;;;;12.70;4.15;;;;;;;;;;6293227;22;20317;-91
2022/12/05 03:04:21;;;;;;;12.48;4.50;;;;;;;;;;6220099;23;20713;-96
2022/12/05 03:06:56;;;;;;;15.25;4.47;;;;;;;;;;6216377;22;20011;-95
2022/12/05 03:09:22;;;;;;;12.90;3.95;;;;;;;;;;6216122;23;20012;-95
2022/12/05 03:11:53;;;;;;;13.93;4.33;;;;;;;;;;6216416;22;20004;-96
2022/12/05 03:14:21;;;;;;;11.70;3.28;;;;;;;;;;6216636;23;20309;-95
2022/12/05 03:16:49;;;;;;;12.50;3.75;;;;;;;;;;6242018;23;20012;-96
2022/12/05 03:19:18;;;;;;;13.45;4.20;;;;;;;;;;6217231;23;20015;-95
2022/12/05 03:21:56;;;;;;;11.48;3.70;;;;;;;;;;6216209;23;20012;-96
2022/12/05 03:24:21;;;;;;;11.57;3.55;;;;;;;;;;6215707;23;20008;-95
2022/12/05 03:26:56;;;;;;;14.20;3.60;;;;;;;;;;6216152;23;20004;-96
2022/12/05 03:29:21;;;;;;;15.20;3.67;;;;;;;;;;6214840;23;19996;-95
2022/12/05 03:31:59;;;;;;;10.40;3.13;;;;;;;;;;6214912;23;20094;-95
2022/12/05 03:34:34;;;;;;;14.00;3.50;;;;;;;;;;6215580;23;20315;-94
2022/12/05 03:37:02;;;;;;;11.20;3.60;;;;;;;;;;6240212;23;20004;-96
2022/12/05 03:39:30;;;;;;;14.98;3.80;;;;;;;;;;6215077;23;20039;-96
2022/12/05 03:42:12;;;;;;;12.30;3.33;;;;;;;;;;6214661;23;20004;-96
2022/12/05 03:44:50;;;;;;;12.48;3.17;;;;;;;;;;6214449;23;20043;-96
2022/12/05 03:47:18;;;;;;;11.70;3.70;;;;;;;;;;6213704;23;20007;-96
2022/12/05 03:49:46;;;;;;;14.70;3.72;;;;;;;;;;6240764;23;20441;-96
2022/12/05 03:52:17;;;;;;;10.77;3.00;;;;;;;;;;6241756;23;20000;-96
2022/12/05 03:54:48;;;;;;;11.73;3.17;;;;;;;;;;6215090;23;20014;-95
2022/12/05 03:57:16;;;;;;;12.65;2.67;;;;;;;;;;6216134;23;20074;-95
2022/12/05 04:00:00;;;;;;;11.23;3.25;;;;;;;;;;6213821;23;20060;-95
2022/12/05 04:02:46;;;;;;;9.95;2.78;;;;;;;;;;6219323;22;20028;-96
2022/12/05 04:05:26;;;;;;;14.48;3.20;;;;;;;;;;6210434;22;20019;-95
2022/12/05 04:07:57;;;;;;;13.10;3.05;;;;;;;;;;6271923;22;20016;-96
2022/12/05 04:10:25;;;;;;;9.93;2.97;;;;;;;;;;6244970;22;20011;-96
2022/12/05 04:12:51;;;;;;;10.48;3.03;;;;;;;;;;6245062;22;20008;-95
2022/12/05 04:15:19;;;;;;;11.10;2.70;;;;;;;;;;6270873;22;19995;-95
2022/12/05 04:17:51;;;;;;;9.35;2.58;;;;;;;;;;6244221;22;20003;-95
2022/12/05 04:23:03;;;;;;;10.98;2.72;;;;;;;;;;6271148;22;20023;-95
2022/12/05 04:25:35;;;;;;;9.57;2.60;;;;;;;;;;6244655;22;20000;-96
2022/12/05 04:28:15;;;;;;;11.05;2.65;;;;;;;;;;6244624;22;20007;-96
2022/12/05 04:30:53;;;;;;;11.05;2.20;;;;;;;;;;6271276;22;20007;-96
2022/12/05 04:33:22;;;;;;;9.70;2.13;;;;;;;;;;6244232;22;20008;-96
2022/12/05 04:35:57;;;;;;;10.80;2.70;;;;;;;;;;6244839;22;20803;-96
2022/12/05 04:38:35;;;;;;;10.93;2.40;;;;;;;;;;6244920;22;20135;-95
2022/12/05 04:41:02;;;;;;;10.23;2.40;;;;;;;;;;6245569;22;20154;-96
2022/12/05 04:43:29;;;;;;;9.18;2.53;;;;;;;;;;6246208;22;20004;-96
2022/12/05 04:45:56;;;;;;;10.18;2.58;;;;;;;;;;6245441;22;20018;-96
2022/12/05 04:48:22;;;;;;;10.02;2.58;;;;;;;;;;6272793;22;19995;-96
2022/12/05 04:50:48;;;;;;;8.57;2.60;;;;;;;;;;6245598;22;20011;-96
2022/12/05 04:53:14;;;;;;;11.73;2.50;;;;;;;;;;6245514;22;20004;-96
2022/12/05 04:55:41;;;;;;;11.02;2.70;;;;;;;;;;6246452;22;20004;-96
2022/12/05 04:58:08;;;;;;;9.80;2.78;;;;;;;;;;6272060;22;20015;-96
2022/12/05 05:00:47;;;;;;;8.60;2.33;;;;;;;;;;6246353;22;20582;-96
2022/12/05 05:03:20;;;;;;;10.40;2.67;;;;;;;;;;6271771;22;20051;-96
2022/12/05 05:05:47;;;;;;;11.05;2.70;;;;;;;;;;6243529;22;20038;-96
2022/12/05 05:08:17;;;;;;;8.35;2.30;;;;;;;;;;6240000;22;20007;-96
2022/12/05 05:10:51;;;;;;;11.98;2.33;;;;;;;;;;6243331;22;20881;-96
2022/12/05 05:13:17;;;;;;;13.68;3.00;;;;;;;;;;6270419;22;20012;-96
2022/12/05 05:15:42;;;;;;;10.98;2.42;;;;;;;;;;6243859;22;20003;-96
2022/12/05 05:18:08;;;;;;;8.80;2.50;;;;;;;;;;6271605;22;20409;-96
2022/12/05 05:20:34;;;;;;;7.47;2.28;;;;;;;;;;6245888;22;20224;-96
2022/12/05 05:22:59;;;;;;;13.60;2.50;;;;;;;;;;6245420;22;20012;-96
2022/12/05 05:25:24;;;;;;;8.90;2.35;;;;;;;;;;6245357;22;20244;-96
2022/12/05 05:27:51;;;;;;;9.10;2.20;;;;;;;;;;6244517;22;20344;-96
2022/12/05 05:30:16;;;;;;;8.18;2.35;;;;;;;;;;6245785;22;20474;-96
2022/12/05 05:32:42;;;;;;;10.82;2.15;;;;;;;;;;6245199;22;20000;-96
2022/12/05 05:35:07;;;;;;;10.45;2.40;;;;;;;;;;6246712;22;20031;-96
2022/12/05 05:37:32;;;;;;;8.88;2.17;;;;;;;;;;6272655;22;19999;-95
2022/12/05 05:39:58;;;;;;;9.40;2.38;;;;;;;;;;6246335;22;20617;-96
2022/12/05 05:42:23;;;;;;;9.98;2.33;;;;;;;;;;6246471;22;20030;-95
2022/12/05 05:44:48;;;;;;;9.00;2.55;;;;;;;;;;6245759;22;20026;-96
2022/12/05 05:47:13;;;;;;;8.23;2.22;;;;;;;;;;6271000;22;20008;-96
2022/12/05 05:49:39;;;;;;;9.98;2.45;;;;;;;;;;6273469;22;20004;-96
2022/12/05 05:52:04;;;;;;;9.83;2.20;;;;;;;;;;6246702;22;20303;-96
2022/12/05 05:54:29;;;;;;;10.37;2.20;;;;;;;;;;6246763;22;20860;-96
2022/12/05 05:56:54;;;;;;;8.52;1.92;;;;;;;;;;6246852;22;20225;-96
2022/12/05 05:59:20;;;;;;;8.07;1.80;;;;;;;;;;6274576;22;20007;-96
2022/12/05 06:01:46;;;;;;;7.53;1.92;;;;;;;;;;6247033;22;20428;-96
2022/12/05 06:04:15;;;;;;;7.85;1.58;;;;;;;;;;6272039;22;20031;-96
2022/12/05 06:06:41;;;;;;;7.72;1.88;;;;;;;;;;6246032;22;20027;-96
2022/12/05 06:09:06;;;;;;;8.60;2.10;;;;;;;;;;6247916;22;20070;-96
2022/12/05 06:11:32;;;;;;;10.60;2.17;;;;;;;;;;6247808;22;20316;-96
2022/12/05 06:14:00;;;;;;;12.35;2.30;;;;;;;;;;6273866;22;20019;-96
2022/12/05 06:16:26;;;;;;;71.28;5.00;;;;;;;;;;6248084;22;20393;-96
2022/12/05 06:18:51;;;;;;;10.95;2.40;;;;;;;;;;6247568;22;20011;-96
2022/12/05 06:21:17;;;;;;;10.88;2.97;;;;;;;;;;6247247;22;20084;-96
2022/12/05 06:23:42;;;;;;;9.43;2.10;;;;;;;;;;6247540;22;20057;-96
2022/12/05 06:26:12;;;;;;;95.60;6.15;;;;;;;;;;6246082;22;20358;-96
2022/12/05 06:28:38;;;;;;;13.88;2.55;;;;;;;;;;6272853;22;20011;-96
2022/12/05 06:31:08;;;;;;;10.15;2.20;;;;;;;;;;6246376;22;20000;-96
2022/12/05 06:33:33;;;;;;;9.93;2.13;;;;;;;;;;6246787;22;20003;-96
2022/12/05 06:36:06;;;;;;;10.57;2.45;;;;;;;;;;6245865;22;20000;-96
2022/12/05 06:38:31;;;;;;;9.82;2.03;;;;;;;;;;6272793;22;19996;-96
2022/12/05 06:40:57;;;;;;;9.77;2.05;;;;;;;;;;6244950;22;21050;-96
2022/12/05 06:43:22;;;;;;;10.23;2.50;;;;;;;;;;6272681;22;20094;-95
2022/12/05 06:45:48;;;;;;;13.50;2.03;;;;;;;;;;6244907;22;20086;-96
2022/12/05 06:48:13;;;;;;;12.20;2.28;;;;;;;;;;6243013;22;20062;-96
2022/12/05 06:50:38;;;;;;;9.68;2.47;;;;;;;;;;6245198;22;20066;-95
2022/12/05 06:53:04;;;;;;;9.35;2.03;;;;;;;;;;6246835;22;20027;-96
2022/12/05 06:55:29;;;;;;;13.20;2.38;;;;;;;;;;6245331;22;20027;-96
2022/12/05 06:57:54;;;;;;;11.98;2.50;;;;;;;;;;6271606;22;20023;-96
2022/12/05 07:03:12;;;;;;;11.80;2.70;;;;;;;;;;6273635;22;20403;-96
2022/12/05 07:05:38;;;;;;;12.05;2.20;;;;;;;;;;6247525;22;20421;-96
2022/12/05 07:08:03;;;;;;;16.83;2.90;;;;;;;;;;6245041;22;20836;-96
2022/12/05 07:10:28;;;;;;;11.32;2.50;;;;;;;;;;6274113;22;20003;-96
2022/12/05 07:12:55;;;;;;;12.87;2.40;;;;;;;;;;6246458;22;19996;-96
2022/12/05 07:15:20;;;;;;;10.38;2.17;;;;;;;;;;6272705;22;20641;-96
2022/12/05 07:17:45;;;;;;;10.85;2.38;;;;;;;;;;6246234;22;20008;-95
2022/12/05 07:20:11;;;;;;;9.43;2.25;;;;;;;;;;6246100;22;20000;-96
2022/12/05 07:22:36;;;;;;;9.27;2.38;;;;;;;;;;6246024;22;20008;-96
2022/12/05 07:25:02;;;;;;;12.57;2.40;;;;;;;;;;6246135;22;20484;-96
2022/12/05 07:27:28;;;;;;;11.90;2.30;;;;;;;;;;6246000;22;20531;-96
2022/12/05 07:29:53;;;;;;;8.38;2.30;;;;;;;;;;6271912;22;20077;-96
2022/12/05 07:32:18;;;;;;;11.50;2.92;;;;;;;;;;6246718;22;20386;-95
2022/12/05 07:34:44;;;;;;;68.60;6.68;;;;;;;;;;6245809;22;20003;-95
2022/12/05 07:37:09;;;;;;;10.40;2.53;;;;;;;;;;6241840;22;20008;-95
2022/12/05 07:39:35;;;;;;;10.18;2.40;;;;;;;;;;6243066;22;20039;-95
2022/12/05 07:42:00;;;;;;;12.07;2.80;;;;;;;;;;6247846;22;20014;-95
2022/12/05 07:44:25;;;;;;;10.90;2.70;;;;;;;;;;6247510;22;20011;-96
2022/12/05 07:46:50;;;;;;;11.68;2.28;;;;;;;;;;6271262;22;20229;-95
2022/12/05 07:49:16;;;;;;;13.20;2.50;;;;;;;;;;6245418;22;20099;-96
2022/12/05 07:51:41;;;;;;;10.20;2.20;;;;;;;;;;6244646;22;20229;-95
2022/12/05 07:54:06;;;;;;;10.52;2.30;;;;;;;;;;6244490;22;20095;-95
2022/12/05 07:56:31;;;;;;;9.60;2.35;;;;;;;;;;6244154;22;20077;-95
2022/12/05 07:58:57;;;;;;;7.75;2.08;;;;;;;;;;6241920;22;20007;-94
2022/12/05 08:01:23;;;;;;;14.63;2.80;;;;;;;;;;6243587;22;20027;-94
2022/12/05 08:03:50;;;;;;;10.82;2.42;;;;;;;;;;6243799;22;20082;-95
2022/12/05 08:06:17;;;;;;;10.45;2.60;;;;;;;;;;6244096;22;20030;-96
2022/12/05 08:09:05;;;;;;;8.68;2.58;;;;;;;;;;6272267;22;20031;-93
2022/12/05 08:11:34;;;;;;;9.73;2.70;;;;;;;;;;6257406;22;20004;-96
2022/12/05 08:14:02;;;;;;;12.13;2.35;;;;;;;;;;6244168;22;20011;-96
2022/12/05 08:16:28;;;;;;;16.92;2.88;;;;;;;;;;6264253;22;20004;-96
2022/12/05 08:18:55;;;;;;;11.73;2.42;;;;;;;;;;6274001;22;20012;-96
2022/12/05 08:21:21;;;;;;;11.35;2.75;;;;;;;;;;6247865;22;20011;-96
2022/12/05 08:23:46;;;;;;;15.70;2.75;;;;;;;;;;6249328;22;20014;-96
2022/12/05 08:26:20;;;;;;;11.90;2.70;;;;;;;;;;6249054;22;20480;-96
2022/12/05 08:28:45;;;;;;;9.23;2.63;;;;;;;;;;6248217;22;20011;-96
2022/12/05 08:31:16;;;;;;;9.32;2.35;;;;;;;;;;6248630;22;20500;-96
2022/12/05 08:33:42;;;;;;;11.00;2.70;;;;;;;;;;6247676;22;20435;-96
2022/12/05 08:36:08;;;;;;;9.52;2.67;;;;;;;;;;6247220;22;20008;-96
2022/12/05 08:38:34;;;;;;;99.82;7.35;;;;;;;;;;6248249;22;20007;-96
2022/12/05 08:41:03;;;;;;;9.55;2.92;;;;;;;;;;6249085;22;20802;-95
2022/12/05 08:43:29;;;;;;;15.65;2.92;;;;;;;;;;6253429;22;20017;-96
2022/12/05 08:45:54;;;;;;;13.85;2.72;;;;;;;;;;6248839;22;20657;-96
2022/12/05 08:48:20;;;;;;;13.15;3.10;;;;;;;;;;6250229;22;20012;-95
2022/12/05 08:50:45;;;;;;;14.60;2.83;;;;;;;;;;6249601;22;20018;-96
2022/12/05 08:53:10;;;;;;;11.32;2.85;;;;;;;;;;6249141;22;20000;-96
2022/12/05 08:55:36;;;;;;;10.27;2.88;;;;;;;;;;6274645;22;20034;-96
2022/12/05 08:58:02;;;;;;;12.70;3.33;;;;;;;;;;6250034;22;20034;-96
2022/12/05 09:00:27;;;;;;;10.60;3.00;;;;;;;;;;6250129;22;20007;-96
2022/12/05 09:02:57;;;;;;;11.02;3.17;;;;;;;;;;6249480;22;20027;-95
2022/12/05 09:05:22;;;;;;;12.73;2.90;;;;;;;;;;6251076;22;20016;-95
2022/12/05 09:07:48;;;;;;;11.70;2.70;;;;;;;;;;6249773;22;20011;-96
2022/12/05 09:10:13;;;;;;;9.50;2.78;;;;;;;;;;6250700;22;20008;-96
2022/12/05 09:12:38;;;;;;;10.07;2.72;;;;;;;;;;6276082;22;20000;-96
2022/12/05 09:15:09;;;;;;;12.25;3.10;;;;;;;;;;6250667;22;20003;-96
2022/12/05 09:17:34;;;;;;;10.45;2.80;;;;;;;;;;6251011;22;20004;-96
2022/12/05 09:20:00;;;;;;;16.05;3.30;;;;;;;;;;6252433;22;21112;-96
2022/12/05 09:22:25;;;;;;;12.70;3.10;;;;;;;;;;6253966;22;20004;-94
2022/12/05 09:24:50;;;;;;;12.52;2.90;;;;;;;;;;6271803;22;20571;-96
2022/12/05 09:27:16;;;;;;;9.85;2.70;;;;;;;;;;6245454;22;20011;-95
2022/12/05 09:29:41;;;;;;;11.70;3.08;;;;;;;;;;6269216;22;20022;-95
2022/12/05 09:32:07;;;;;;;11.55;2.95;;;;;;;;;;6244811;22;20031;-95
2022/12/05 09:34:33;;;;;;;9.52;2.53;;;;;;;;;;6269766;22;19996;-95
2022/12/05 09:37:00;;;;;;;10.18;2.60;;;;;;;;;;6243275;22;20037;-94
2022/12/05 09:39:26;;;;;;;11.27;2.97;;;;;;;;;;6244139;22;20008;-94
2022/12/05 09:42:12;;;;;;;9.40;3.22;;;;;;;;;;6274331;22;20010;-94
2022/12/05 09:44:40;;;;;;;7.45;2.08;;;;;;;;;;6245425;22;20020;-95
2022/12/05 09:47:11;;;;;;;20.58;3.20;;;;;;;;;;6246608;22;20464;-95
2022/12/05 09:49:39;;;;;;;11.90;2.90;;;;;;;;;;6246609;22;20007;-96
2022/12/05 09:52:04;;;;;;;15.82;2.83;;;;;;;;;;6245618;22;20216;-95
2022/12/05 09:54:30;;;;;;;17.23;3.33;;;;;;;;;;6245944;22;20004;-94
2022/12/05 09:56:56;;;;;;;10.30;3.08;;;;;;;;;;6247145;22;20012;-94
2022/12/05 09:59:21;;;;;;;14.23;3.10;;;;;;;;;;6271075;22;20004;-95
2022/12/05 10:01:47;;;;;;;13.02;2.83;;;;;;;;;;6243153;22;20006;-94
2022/12/05 10:04:32;;;;;;;11.35;2.80;;;;;;;;;;6241598;22;20024;-94
2022/12/05 10:07:20;;;;;;;11.75;2.78;;;;;;;;;;6242288;22;20004;-95
2022/12/05 10:09:51;;;;;;;11.77;3.15;;;;;;;;;;6271855;22;20011;-95
2022/12/05 10:12:35;;;;;;;8.57;2.80;;;;;;;;;;6275970;22;20027;-89
2022/12/05 10:15:11;;;;;;;16.90;3.63;;;;;;;;;;6265760;22;20087;-90
2022/12/05 10:17:40;;;;;;;13.73;3.47;;;;;;;;;;6269534;22;20013;-90
2022/12/05 10:20:12;;;;;;;11.40;2.95;;;;;;;;;;6268642;22;20502;-90
2022/12/05 10:22:49;;;;;;;10.02;3.40;;;;;;;;;;6267989;22;20516;-90
2022/12/05 10:25:17;;;;;;;10.23;2.92;;;;;;;;;;6268279;22;20015;-90
2022/12/05 10:27:47;;;;;;;12.48;3.40;;;;;;;;;;6296482;22;20022;-90
2022/12/05 10:30:39;;;;;;;12.93;4.15;;;;;;;;;;6266352;22;20038;-90
2022/12/05 10:33:17;;;;;;;9.82;3.13;;;;;;;;;;6286930;22;20015;-90
2022/12/05 10:35:42;;;;;;;12.65;2.95;;;;;;;;;;6266429;22;20003;-91
2022/12/05 10:38:34;;;;;;;11.77;3.53;;;;;;;;;;6292306;22;20492;-89
2022/12/05 10:41:02;;;;;;;12.45;3.40;;;;;;;;;;6285538;22;20038;-89
2022/12/05 10:43:29;;;;;;;15.45;2.92;;;;;;;;;;6266604;22;20103;-89
2022/12/05 10:45:55;;;;;;;10.13;3.22;;;;;;;;;;6268946;22;20019;-89
2022/12/05 10:48:21;;;;;;;11.05;3.10;;;;;;;;;;6268013;22;20073;-90
2022/12/05 10:50:54;;;;;;;9.73;2.70;;;;;;;;;;6268120;22;20013;-90
2022/12/05 10:53:22;;;;;;;13.95;3.25;;;;;;;;;;6267271;22;20701;-90
2022/12/05 10:55:49;;;;;;;10.88;3.03;;;;;;;;;;6295885;22;20027;-89
2022/12/05 10:58:15;;;;;;;14.65;3.60;;;;;;;;;;6296325;22;20007;-89
2022/12/05 11:00:45;;;;;;;11.80;3.30;;;;;;;;;;6266867;22;20581;-90
2022/12/05 11:03:21;;;;;;;10.18;3.22;;;;;;;;;;6266940;22;20011;-90
2022/12/05 11:05:48;;;;;;;11.85;2.83;;;;;;;;;;6266020;22;20642;-91
2022/12/05 11:08:20;;;;;;;10.55;3.50;;;;;;;;;;6292437;22;20011;-90
2022/12/05 11:10:46;;;;;;;13.50;2.97;;;;;;;;;;6295040;22;20081;-90
2022/12/05 11:13:24;;;;;;;14.35;3.38;;;;;;;;;;6299666;22;20769;-90
2022/12/05 11:15:49;;;;;;;13.70;2.85;;;;;;;;;;6298820;22;20007;-90
2022/12/05 11:18:24;;;;;;;13.60;2.83;;;;;;;;;;6326072;22;20026;-91
2022/12/05 11:20:49;;;;;;;12.88;3.20;;;;;;;;;;6327765;22;20502;-90
2022/12/05 11:23:17;;;;;;;12.20;3.30;;;;;;;;;;6300026;22;20023;-91
2022/12/05 11:25:42;;;;;;;12.07;3.40;;;;;;;;;;6299329;22;20832;-92
2022/12/05 11:28:16;;;;;;;12.10;3.45;;;;;;;;;;6299884;22;20010;-91
2022/12/05 11:30:57;;;;;;;10.73;3.10;;;;;;;;;;6323579;22;19991;-90
2022/12/05 11:33:23;;;;;;;10.85;2.97;;;;;;;;;;6296782;22;20011;-91
2022/12/05 11:35:49;;;;;;;11.75;3.25;;;;;;;;;;6296902;22;20384;-91
2022/12/05 11:38:16;;;;;;;10.05;3.28;;;;;;;;;;6325408;22;20011;-91
2022/12/05 11:40:41;;;;;;;13.00;3.17;;;;;;;;;;6324368;22;20622;-91
2022/12/05 11:43:25;;;;;;;16.23;3.13;;;;;;;;;;6298604;22;20015;-90
2022/12/05 11:45:57;;;;;;;11.68;3.20;;;;;;;;;;6296028;22;20266;-89
2022/12/05 11:48:28;;;;;;;18.17;3.78;;;;;;;;;;6326534;22;20106;-89
2022/12/05 11:50:57;;;;;;;12.10;3.58;;;;;;;;;;6328382;22;20064;-92
2022/12/05 11:53:37;;;;;;;11.48;3.55;;;;;;;;;;6327406;22;20454;-91
2022/12/05 11:56:23;;;;;;;10.75;3.22;;;;;;;;;;6300500;22;20060;-91
2022/12/05 11:58:55;;;;;;;10.63;3.08;;;;;;;;;;6299787;22;20042;-90
2022/12/05 12:01:22;;;;;;;12.37;2.97;;;;;;;;;;6327193;22;20003;-89
2022/12/05 12:03:50;;;;;;;14.55;3.78;;;;;;;;;;6301240;22;20316;-91
2022/12/05 12:06:16;;;;;;;10.80;3.15;;;;;;;;;;6329218;22;20010;-91
2022/12/05 12:08:41;;;;;;;11.90;3.17;;;;;;;;;;6302297;22;20014;-91
2022/12/05 12:11:32;;;;;;;12.07;3.20;;;;;;;;;;6326378;22;20081;-91
2022/12/05 12:14:13;;;;;;;12.07;2.80;;;;;;;;;;6267465;22;20018;-90
2022/12/05 12:16:45;;;;;;;10.63;3.15;;;;;;;;;;6327475;22;20003;-91
2022/12/05 12:19:17;;;;;;;14.30;2.88;;;;;;;;;;6328708;22;20134;-91
2022/12/05 12:21:49;;;;;;;11.55;3.30;;;;;;;;;;6329994;22;20729;-92
2022/12/05 12:24:33;;;;;;;10.40;2.80;;;;;;;;;;6330071;22;20010;-91
2022/12/05 12:27:17;;;;;;;11.10;3.08;;;;;;;;;;6301473;22;20018;-92
2022/12/05 12:29:54;;;;;;;18.08;4.65;;;;;;;;;;6301687;22;20263;-92
2022/12/05 12:32:28;;;;;;;10.13;2.70;;;;;;;;;;6302591;22;20003;-91
2022/12/05 12:34:56;;;;;;;12.40;3.00;;;;;;;;;;6301423;22;20500;-90
2022/12/05 12:37:31;;;;;;;12.40;3.15;;;;;;;;;;6330137;22;20105;-90
2022/12/05 12:40:06;;;;;;;9.98;2.88;;;;;;;;;;6302676;22;20014;-91
2022/12/05 12:42:31;;;;;;;11.20;2.92;;;;;;;;;;6329553;22;20011;-90
2022/12/05 12:45:08;;;;;;;11.75;3.20;;;;;;;;;;6328577;22;20009;-91
2022/12/05 12:47:36;;;;;;;13.50;3.00;;;;;;;;;;6302194;22;20010;-90
2022/12/05 12:50:20;;;;;;;11.93;2.70;;;;;;;;;;6328358;22;20459;-91
2022/12/05 12:53:05;;;;;;;8.02;2.72;;;;;;;;;;6328392;22;20009;-90
2022/12/05 12:55:37;;;;;;;12.57;3.53;;;;;;;;;;6250219;22;20038;-90
2022/12/05 12:58:25;;;;;;;10.63;3.13;;;;;;;;;;6329523;22;20022;-91
2022/12/05 13:00:53;;;;;;;9.95;2.85;;;;;;;;;;6299548;22;20113;-91
2022/12/05 13:03:26;;;;;;;10.82;3.10;;;;;;;;;;6299803;22;20002;-90
2022/12/05 13:05:57;;;;;;;13.40;3.30;;;;;;;;;;6301576;22;20002;-91
2022/12/05 13:08:34;;;;;;;11.50;3.38;;;;;;;;;;6302871;22;20003;-91
2022/12/05 13:11:01;;;;;;;12.55;3.10;;;;;;;;;;6302819;22;20002;-92
2022/12/05 13:13:33;;;;;;;12.95;3.40;;;;;;;;;;6327873;22;20014;-92
2022/12/05 13:16:00;;;;;;;12.25;3.50;;;;;;;;;;6329590;22;20006;-91
2022/12/05 13:18:25;;;;;;;10.40;3.08;;;;;;;;;;6331493;22;20074;-92
2022/12/05 13:20:55;;;;;;;12.45;3.28;;;;;;;;;;6302963;22;20026;-91
2022/12/05 13:23:28;;;;;;;10.57;3.58;;;;;;;;;;6303015;22;20472;-92
2022/12/05 13:25:55;;;;;;;11.57;3.40;;;;;;;;;;6329954;22;20052;-92
2022/12/05 13:28:24;;;;;;;9.07;3.08;;;;;;;;;;6331614;22;20038;-92
2022/12/05 13:31:03;;;;;;;12.77;3.67;;;;;;;;;;6302654;22;19999;-92
2022/12/05 13:33:49;;;;;;;14.35;3.85;;;;;;;;;;6303213;22;20011;-92
2022/12/05 13:44:46;;;;;;;13.55;4.07;;;;;;;;;;6329148;22;20025;-91
2022/12/05 13:47:21;;;;;;;17.98;4.03;;;;;;;;;;6300545;22;20014;-91
2022/12/05 13:49:49;;;;;;;12.75;3.90;;;;;;;;;;6329408;22;20444;-92
2022/12/05 13:52:18;;;;;;;10.20;3.40;;;;;;;;;;6303655;22;20013;-92
2022/12/05 13:54:47;;;;;;;13.70;3.97;;;;;;;;;;6330515;22;19991;-92
2022/12/05 13:57:31;;;;;;;14.00;3.95;;;;;;;;;;6332121;22;20003;-91
2022/12/05 14:00:21;;;;;;;12.88;3.80;;;;;;;;;;6303473;22;20038;-92
2022/12/05 14:02:48;;;;;;;10.45;2.95;;;;;;;;;;6312475;22;20013;-91
2022/12/05 14:05:13;;;;;;;11.65;3.40;;;;;;;;;;6304359;22;20432;-91
2022/12/05 14:07:42;;;;;;;16.10;3.50;;;;;;;;;;6330413;22;20097;-92
2022/12/05 14:10:09;;;;;;;11.65;3.40;;;;;;;;;;6298470;22;20040;-92
2022/12/05 14:12:55;;;;;;;13.02;3.90;;;;;;;;;;6298183;22;20102;-91
2022/12/05 14:15:37;;;;;;;32.60;4.72;;;;;;;;;;6297717;22;20003;-91
2022/12/05 14:18:17;;;;;;;12.48;3.60;;;;;;;;;;6301435;22;20082;-91
2022/12/05 14:20:54;;;;;;;13.85;3.72;;;;;;;;;;6298210;22;20003;-91
2022/12/05 14:23:23;;;;;;;10.63;3.53;;;;;;;;;;6328814;22;20018;-91
2022/12/05 14:25:53;;;;;;;14.80;4.55;;;;;;;;;;6328241;22;20210;-91
2022/12/05 14:28:36;;;;;;;17.55;4.10;;;;;;;;;;6330092;22;20348;-91
2022/12/05 14:31:01;;;;;;;13.63;4.20;;;;;;;;;;6300778;22;20003;-91
2022/12/05 14:33:27;;;;;;;56.25;6.50;;;;;;;;;;6302337;22;20011;-91
2022/12/05 14:36:03;;;;;;;10.85;3.42;;;;;;;;;;6325856;22;19999;-92
2022/12/05 14:38:29;;;;;;;11.20;3.30;;;;;;;;;;6327785;22;20094;-91
2022/12/05 14:40:56;;;;;;;12.30;3.90;;;;;;;;;;6299697;22;20064;-91
2022/12/05 14:43:32;;;;;;;13.52;3.60;;;;;;;;;;6301317;22;20316;-91
2022/12/05 14:46:02;;;;;;;10.82;3.00;;;;;;;;;;6298543;22;20007;-91
2022/12/05 14:48:33;;;;;;;9.02;2.95;;;;;;;;;;6298460;22;20006;-91
2022/12/05 14:50:59;;;;;;;9.57;3.40;;;;;;;;;;6326463;22;20378;-91
2022/12/05 14:53:29;;;;;;;11.13;3.47;;;;;;;;;;6298320;22;20021;-92
2022/12/05 14:56:15;;;;;;;22.27;4.50;;;;;;;;;;6298790;22;20489;-92
2022/12/05 14:59:03;;;;;;;12.18;4.00;;;;;;;;;;6297531;22;20022;-91